»·PEaware :: N614FT KBUR-KLAS

N614FT :: KBUR-KLAS

FLIGHT INFORMATION

Flight Status: Arrived
Operator: Privately registered:
United States
More flights under this callsign
Pilot: Carlos A. (16805)
Aircraft: PIPER PA-31/31P NAVAJO CHIEFTAIN
(PA31)
More flights by this aircraft type
Origin: KBUR Bob Hope-Burbank
United States
Destination: KLAS Harry Reid Intl
United States
More flights between these airports :: More routes between these airports
Route: VNY3 DAG CRESO5
File this flight plan on PilotEdge
Remarks:
Altitude:
(Current/Filed)
9,000ft
Speed:
(Current/Filed)
185kts
Departed: 19-Jan-23 09:56 AM
Arrived: 19-Jan-23 11:08 AM
Distance/Time
Traveled:
194nm/1:12
Distance/Time
To Go:
Arrived

Flight Plot

Page will automatically refresh every two minutes.

Flight plan parsing failed; only flown route is shown


Map Options




Map Legend


Flown Route
Filed Route
Departure Airport
Arrival Airport
Navaid (VOR, NDB)
Fix

Horizontal Profiles

Position Reports

Time Latitude Longitude Heading Altitude Ground
Speed
19-Jan-23 09:34 34.202270 -118.360109 255 782ft 0kts
19-Jan-23 09:35 34.202269 -118.360111 255 782ft 0kts
19-Jan-23 09:36 34.202269 -118.360113 255 782ft 0kts
19-Jan-23 09:37 34.202269 -118.360115 255 782ft 0kts
19-Jan-23 09:38 34.202268 -118.360117 255 782ft 0kts
19-Jan-23 09:39 34.202268 -118.360119 255 782ft 0kts
19-Jan-23 09:40 34.202267 -118.360121 255 782ft 0kts
19-Jan-23 09:41 34.202267 -118.360123 255 782ft 0kts
19-Jan-23 09:42 34.202266 -118.360125 255 782ft 0kts
19-Jan-23 09:43 34.202266 -118.360127 255 782ft 0kts
19-Jan-23 09:44 34.202266 -118.360129 255 782ft 0kts
19-Jan-23 09:45 34.202265 -118.360131 255 782ft 0kts
19-Jan-23 09:46 34.202659 -118.360135 78 782ft 0kts
19-Jan-23 09:47 34.203064 -118.359576 64 782ft 6kts
19-Jan-23 09:48 34.206538 -118.359860 349 782ft 18kts
19-Jan-23 09:49 34.211424 -118.361219 346 782ft 13kts
19-Jan-23 09:50 34.211977 -118.361056 76 782ft 0kts
19-Jan-23 09:51 34.211977 -118.361055 76 782ft 0kts
19-Jan-23 09:52 34.211978 -118.361053 76 782ft 0kts
19-Jan-23 09:53 34.211978 -118.361052 76 782ft 0kts
19-Jan-23 09:54 34.212020 -118.360404 150 782ft 4kts
19-Jan-23 09:55 34.199542 -118.357426 180 1384ft 84kts
19-Jan-23 09:56 34.177199 -118.374168 226 2705ft 98kts
19-Jan-23 09:57 34.157180 -118.397949 227 3975ft 100kts
19-Jan-23 09:58 34.174870 -118.417363 359 4692ft 106kts
19-Jan-23 09:59 34.207995 -118.415789 356 5385ft 125kts
19-Jan-23 10:00 34.242947 -118.408716 8 6507ft 127kts
19-Jan-23 10:01 34.277700 -118.398245 13 7822ft 131kts
19-Jan-23 10:02 34.312382 -118.383309 10 8759ft 132kts
19-Jan-23 10:03 34.353058 -118.369226 6 9149ft 180kts
19-Jan-23 10:04 34.406567 -118.352813 12 8992ft 211kts
19-Jan-23 10:05 34.460962 -118.326577 28 9027ft 214kts
19-Jan-23 10:06 34.499119 -118.271039 54 9004ft 223kts
19-Jan-23 10:07 34.539458 -118.213194 47 9001ft 228kts
19-Jan-23 10:08 34.576683 -118.151182 50 9011ft 226kts
19-Jan-23 10:09 34.613741 -118.088773 47 9060ft 224kts
19-Jan-23 10:10 34.649725 -118.027140 74 9010ft 228kts
19-Jan-23 10:11 34.652703 -117.950418 91 9027ft 223kts
19-Jan-23 10:12 34.658056 -117.875374 81 9035ft 223kts
19-Jan-23 10:13 34.664610 -117.799799 89 8965ft 221kts
19-Jan-23 10:14 34.669118 -117.724588 80 8993ft 220kts
19-Jan-23 10:15 34.690415 -117.653880 70 8977ft 225kts
19-Jan-23 10:16 34.714763 -117.582840 69 8914ft 223kts
19-Jan-23 10:17 34.732475 -117.511119 73 9152ft 221kts
19-Jan-23 10:18 34.753869 -117.439359 68 9088ft 225kts
19-Jan-23 10:19 34.783638 -117.372142 63 9065ft 229kts
19-Jan-23 10:20 34.794081 -117.295970 86 9032ft 220kts
19-Jan-23 10:22 34.806571 -117.221585 73 8919ft 230kts
19-Jan-23 10:23 34.820031 -117.146842 79 8985ft 226kts
19-Jan-23 10:24 34.836722 -117.072623 70 9137ft 221kts
19-Jan-23 10:25 34.858144 -117.002916 70 9617ft 224kts
19-Jan-23 10:26 34.871912 -116.928021 75 9904ft 227kts
19-Jan-23 10:27 34.896339 -116.857271 72 10330ft 230kts
19-Jan-23 10:28 34.912699 -116.783470 82 10945ft 238kts
19-Jan-23 10:29 34.929693 -116.705925 69 11156ft 241kts
19-Jan-23 10:30 34.950005 -116.627507 74 11115ft 243kts
19-Jan-23 10:31 34.969446 -116.548496 76 11041ft 243kts
19-Jan-23 10:32 35.018785 -116.510959 11 10955ft 230kts
19-Jan-23 10:33 35.059218 -116.449219 43 10968ft 237kts
19-Jan-23 10:34 35.096132 -116.382700 62 10961ft 240kts
19-Jan-23 10:35 35.143100 -116.328856 51 10966ft 239kts
19-Jan-23 10:36 35.176897 -116.259120 70 10961ft 241kts
19-Jan-23 10:37 35.188873 -116.179177 101 10952ft 239kts
19-Jan-23 10:38 35.180534 -116.099745 77 10968ft 240kts
19-Jan-23 10:39 35.207139 -116.025241 60 10966ft 240kts
19-Jan-23 10:40 35.237560 -115.952314 63 10971ft 240kts
19-Jan-23 10:41 35.266498 -115.878670 63 10975ft 240kts
19-Jan-23 10:42 35.296651 -115.805489 65 10975ft 240kts
19-Jan-23 10:43 35.317733 -115.728547 61 11047ft 238kts
19-Jan-23 10:44 35.353757 -115.660081 57 11043ft 243kts
19-Jan-23 10:45 35.398696 -115.603948 16 10867ft 234kts
19-Jan-23 10:46 35.456281 -115.568127 33 11008ft 240kts
19-Jan-23 10:47 35.506853 -115.515387 24 11015ft 221kts
19-Jan-23 10:47 35.549619 -115.476225 37 11010ft 240kts
19-Jan-23 10:49 35.607309 -115.412268 45 11014ft 240kts
19-Jan-23 10:50 35.655060 -115.355622 39 11110ft 238kts
19-Jan-23 10:50 35.694675 -115.307291 46 11072ft 237kts
19-Jan-23 10:51 35.736756 -115.243555 51 10957ft 246kts
19-Jan-23 10:52 35.778674 -115.178539 49 10968ft 239kts
19-Jan-23 10:53 35.821034 -115.121236 40 10460ft 221kts
19-Jan-23 10:55 35.869017 -115.053973 52 9330ft 223kts
19-Jan-23 10:55 35.897009 -115.001687 65 8602ft 218kts
19-Jan-23 10:56 35.931512 -114.943828 41 7513ft 205kts
19-Jan-23 10:57 35.970600 -114.900884 48 6251ft 180kts
19-Jan-23 10:58 36.004602 -114.873347 12 6338ft 158kts
19-Jan-23 10:59 36.047802 -114.860585 16 6616ft 175kts
19-Jan-23 11:00 36.091012 -114.856943 289 6937ft 171kts
19-Jan-23 11:01 36.071789 -114.904915 252 6968ft 157kts
19-Jan-23 11:02 36.073359 -114.958428 259 6130ft 157kts
19-Jan-23 11:03 36.073603 -115.010590 263 4699ft 154kts
19-Jan-23 11:04 36.074735 -115.060276 268 3318ft 135kts
19-Jan-23 11:05 36.074024 -115.101377 267 2615ft 103kts
19-Jan-23 11:06 36.073652 -115.133127 271 2185ft 42kts
19-Jan-23 11:07 36.074290 -115.133802 354 2185ft 0kts
19-Jan-23 11:08 36.074292 -115.133802 354 2185ft 0kts
19-Jan-23 11:09 36.074294 -115.133802 354 2185ft 0kts
19-Jan-23 11:10 36.076550 -115.133821 0 2185ft 12kts
19-Jan-23 11:11 36.077528 -115.132650 90 2185ft 20kts
19-Jan-23 11:12 36.079283 -115.130638 0 2185ft 14kts
19-Jan-23 11:13 36.080330 -115.132341 268 2185ft 13kts
19-Jan-23 11:14 36.080332 -115.133490 269 2185ft 0kts
19-Jan-23 11:15 36.080332 -115.133492 269 2185ft 0kts
19-Jan-23 11:16 36.080332 -115.133494 269 2185ft 0kts
19-Jan-23 11:17 36.080332 -115.133494 269 2185ft 0kts
19-Jan-23 11:18 36.080332 -115.133494 269 2185ft 0kts
19-Jan-23 11:19 36.080332 -115.133494 269 2185ft 0kts

Navigation Log

Ident Type
Flight plan parsing failed, navigation log unavailable